createdAt,value
2018-11-01T00:01:36.214Z,80.24
2018-11-01T00:04:07.269Z,80.33
2018-11-01T00:06:38.261Z,80.32
2018-11-01T00:09:10.777Z,80.46
2018-11-01T00:11:41.778Z,79.88
2018-11-01T00:14:12.910Z,79.64
2018-11-01T00:16:44.155Z,79.45
2018-11-01T00:19:15.176Z,79.33
2018-11-01T00:21:46.303Z,79.57
2018-11-01T00:24:17.296Z,79.09
2018-11-01T00:26:48.333Z,78.93
2018-11-01T00:29:19.325Z,78.43
2018-11-01T00:31:50.335Z,78.35
2018-11-01T00:34:21.312Z,78.38
2018-11-01T00:36:52.312Z,79.00
2018-11-01T00:39:23.357Z,79.38
2018-11-01T00:41:54.788Z,79.80
2018-11-01T00:44:25.865Z,79.84
2018-11-01T00:46:57.246Z,80.02
2018-11-01T00:49:28.552Z,79.81
2018-11-01T00:51:59.611Z,80.04
2018-11-01T00:54:30.616Z,80.20
2018-11-01T00:57:01.693Z,80.02
2018-11-01T00:59:33.046Z,80.66
2018-11-01T01:02:04.225Z,80.81
2018-11-01T01:04:35.426Z,80.96
2018-11-01T01:07:06.543Z,81.04
2018-11-01T01:09:37.462Z,81.46
2018-11-01T01:12:09.059Z,81.17
2018-11-01T01:14:40.089Z,81.24
2018-11-01T01:17:11.057Z,81.92
2018-11-01T01:19:42.159Z,82.00
2018-11-01T01:22:13.737Z,81.77
2018-11-01T01:24:45.294Z,82.33
2018-11-01T01:27:16.632Z,82.55
2018-11-01T01:29:48.489Z,81.97
2018-11-01T01:32:19.612Z,81.15
2018-11-01T01:34:50.796Z,80.49
2018-11-01T01:37:21.962Z,80.46
2018-11-01T01:39:53.427Z,80.64
2018-11-01T01:42:36.586Z,81.29
2018-11-01T01:45:09.327Z,81.56
2018-11-01T01:47:40.724Z,80.97
2018-11-01T01:50:14.578Z,80.25
2018-11-01T01:52:45.949Z,80.49
2018-11-01T01:55:17.360Z,80.47
2018-11-01T01:57:48.348Z,80.81
2018-11-01T02:00:20.983Z,80.80
2018-11-01T02:02:53.434Z,80.79
2018-11-01T02:05:24.944Z,80.67
2018-11-01T02:07:56.413Z,80.76
2018-11-01T02:10:27.420Z,80.40
2018-11-01T02:12:58.452Z,80.11
2018-11-01T02:15:29.401Z,80.12
2018-11-01T02:18:00.471Z,80.32
2018-11-01T02:20:32.389Z,80.58
2018-11-01T02:23:03.436Z,80.75
2018-11-01T02:25:34.528Z,80.89
2018-11-01T02:28:18.827Z,81.20
2018-11-01T02:30:50.210Z,81.58
2018-11-01T02:33:21.287Z,81.90
2018-11-01T02:35:52.694Z,82.23
2018-11-01T02:38:24.121Z,81.99
2018-11-01T02:40:55.306Z,81.78
2018-11-01T02:43:26.649Z,82.05
2018-11-01T02:46:02.224Z,82.07
2018-11-01T02:48:33.499Z,82.34
2018-11-01T02:51:04.572Z,82.36
2018-11-01T02:53:36.017Z,82.17
2018-11-01T02:56:07.324Z,82.17
2018-11-01T02:58:38.391Z,82.49
2018-11-01T03:01:09.443Z,82.80
2018-11-01T03:03:40.527Z,82.59
2018-11-01T03:06:11.479Z,82.04
2018-11-01T03:08:42.717Z,81.85
2018-11-01T03:11:13.834Z,81.87
2018-11-01T03:13:45.346Z,81.85
2018-11-01T03:16:16.335Z,81.50
2018-11-01T03:18:47.969Z,80.92
2018-11-01T03:21:19.340Z,80.96
2018-11-01T03:23:50.389Z,80.19
2018-11-01T03:26:21.663Z,79.96
2018-11-01T03:28:52.662Z,79.99
2018-11-01T03:31:24.173Z,80.22
2018-11-01T03:33:55.285Z,80.27
2018-11-01T03:36:26.805Z,80.11
2018-11-01T03:38:58.281Z,79.87
2018-11-01T03:41:29.136Z,78.84
2018-11-01T03:44:00.899Z,78.65
2018-11-01T03:46:32.603Z,78.72
2018-11-01T03:49:03.763Z,78.63
2018-11-01T03:51:34.939Z,78.87
2018-11-01T03:54:06.725Z,78.77
2018-11-01T03:56:38.913Z,78.85
2018-11-01T03:59:10.040Z,78.71
2018-11-01T04:01:41.508Z,78.26
2018-11-01T04:04:12.640Z,77.44
2018-11-01T04:06:43.725Z,77.32
2018-11-01T04:09:15.559Z,77.59
2018-11-01T04:11:46.487Z,77.42
2018-11-01T04:14:17.591Z,77.15
2018-11-01T04:16:48.657Z,77.31
2018-11-01T04:19:19.679Z,77.52
2018-11-01T04:21:54.325Z,77.48
2018-11-01T04:24:25.682Z,77.54
2018-11-01T04:26:56.857Z,77.76
2018-11-01T04:29:27.971Z,77.50
2018-11-01T04:31:59.317Z,77.17
2018-11-01T04:34:30.861Z,76.89
2018-11-01T04:37:01.803Z,76.58
2018-11-01T04:39:32.743Z,76.08
2018-11-01T04:42:03.949Z,75.82
2018-11-01T04:44:35.221Z,75.43
2018-11-01T04:47:06.275Z,75.42
2018-11-01T04:49:37.605Z,75.21
2018-11-01T04:52:09.031Z,75.35
2018-11-01T04:54:40.137Z,75.20
2018-11-01T04:57:11.122Z,74.29
2018-11-01T04:59:42.179Z,74.11
2018-11-01T05:02:13.187Z,73.32
2018-11-01T05:04:44.150Z,73.14
2018-11-01T05:07:15.156Z,73.37
2018-11-01T05:09:47.192Z,73.63
2018-11-01T05:12:18.200Z,73.61
2018-11-01T05:14:49.307Z,73.56
2018-11-01T05:17:20.327Z,73.69
2018-11-01T05:19:51.487Z,73.34
2018-11-01T05:22:22.530Z,73.40
2018-11-01T05:24:53.647Z,72.73
2018-11-01T05:27:24.626Z,72.72
2018-11-01T05:29:55.575Z,72.44
2018-11-01T05:32:26.615Z,72.50
2018-11-01T05:34:58.318Z,72.06
2018-11-01T05:37:29.413Z,72.01
2018-11-01T05:40:00.377Z,72.00
2018-11-01T05:42:32.505Z,72.56
2018-11-01T05:45:03.992Z,72.81
2018-11-01T05:47:34.968Z,72.61
2018-11-01T05:50:06.144Z,73.50
2018-11-01T05:52:37.220Z,72.70
2018-11-01T05:55:09.019Z,72.78
2018-11-01T05:57:39.958Z,71.64
2018-11-01T06:00:15.207Z,71.44
2018-11-01T06:02:50.148Z,70.73
2018-11-01T06:05:21.020Z,69.70
2018-11-01T06:08:11.912Z,69.39
2018-11-01T06:10:42.803Z,69.73
2018-11-01T06:13:13.660Z,69.82
2018-11-01T06:15:44.540Z,69.68
2018-11-01T06:18:15.420Z,69.92
2018-11-01T06:20:46.371Z,70.38
2018-11-01T06:23:17.224Z,70.13
2018-11-01T06:25:48.280Z,69.02
2018-11-01T06:28:19.184Z,68.99
2018-11-01T06:30:50.343Z,68.45
2018-11-01T06:33:21.530Z,68.00
2018-11-01T06:35:54.307Z,68.85
2018-11-01T06:38:25.235Z,68.25
2018-11-01T06:40:56.453Z,68.05
2018-11-01T06:43:27.931Z,67.80
2018-11-01T06:45:58.820Z,67.45
2018-11-01T06:48:29.731Z,67.56
2018-11-01T06:51:00.625Z,67.96
2018-11-01T06:53:31.534Z,68.12
2018-11-01T06:56:02.704Z,68.34
2018-11-01T06:58:34.313Z,68.73
2018-11-01T07:01:05.029Z,67.77
2018-11-01T07:03:35.952Z,68.50
2018-11-01T07:06:07.033Z,67.81
2018-11-01T07:08:38.268Z,66.99
2018-11-01T07:11:09.152Z,67.44
2018-11-01T07:13:40.044Z,67.05
2018-11-01T07:16:10.946Z,67.37
2018-11-01T07:18:41.847Z,66.84
2018-11-01T07:21:12.744Z,67.17
2018-11-01T07:23:43.658Z,67.24
2018-11-01T07:26:14.722Z,67.05
2018-11-01T07:28:45.774Z,65.13
2018-11-01T07:31:17.078Z,65.07
2018-11-01T07:33:47.980Z,64.64
2018-11-01T07:36:19.066Z,65.28
2018-11-01T07:38:50.516Z,65.17
2018-11-01T07:41:21.748Z,64.71
2018-11-01T07:43:52.694Z,63.85
2018-11-01T07:46:23.579Z,64.14
2018-11-01T07:48:54.744Z,64.37
2018-11-01T07:51:25.909Z,63.59
2018-11-01T07:53:56.873Z,63.91
2018-11-01T07:56:27.756Z,63.58
2018-11-01T07:58:58.807Z,62.56
2018-11-01T08:01:29.746Z,62.96
2018-11-01T08:04:01.284Z,63.61
2018-11-01T08:06:32.281Z,62.77
2018-11-01T08:09:05.024Z,63.49
2018-11-01T08:11:36.548Z,62.68
2018-11-01T08:14:08.169Z,62.65
2018-11-01T08:16:39.426Z,62.45
2018-11-01T08:19:10.950Z,62.67
2018-11-01T08:21:42.134Z,62.65
2018-11-01T08:24:13.275Z,62.96
2018-11-01T08:26:44.564Z,62.38
2018-11-01T08:29:15.554Z,62.74
2018-11-01T08:31:46.449Z,62.40
2018-11-01T08:34:17.350Z,62.99
2018-11-01T08:36:48.258Z,62.32
2018-11-01T08:39:19.567Z,62.21
2018-11-01T08:41:50.610Z,62.84
2018-11-01T08:44:21.525Z,63.34
2018-11-01T08:46:52.426Z,62.99
2018-11-01T08:49:23.422Z,63.07
2018-11-01T08:51:54.324Z,63.69
2018-11-01T08:54:25.656Z,63.14
2018-11-01T08:56:56.583Z,63.02
2018-11-01T08:59:27.857Z,63.65
2018-11-01T09:01:59.080Z,63.18
2018-11-01T09:04:30.351Z,63.22
2018-11-01T09:07:01.566Z,63.34
2018-11-01T09:09:32.509Z,62.65
2018-11-01T09:12:03.785Z,63.29
2018-11-01T09:14:35.664Z,62.76
2018-11-01T09:17:06.728Z,62.96
2018-11-01T09:19:38.394Z,62.59
2018-11-01T09:22:09.936Z,62.80
2018-11-01T09:24:40.927Z,62.56
2018-11-01T09:27:11.865Z,62.00
2018-11-01T09:29:43.173Z,63.24
2018-11-01T09:32:14.107Z,62.93
2018-11-01T09:34:45.556Z,62.83
2018-11-01T09:37:16.809Z,62.17
2018-11-01T09:39:48.146Z,61.75
2018-11-01T09:42:19.166Z,61.40
2018-11-01T09:44:50.171Z,61.85
2018-11-01T09:47:21.492Z,61.08
2018-11-01T09:49:52.445Z,61.47
2018-11-01T09:52:24.005Z,61.84
2018-11-01T09:54:54.996Z,62.20
2018-11-01T09:57:26.251Z,62.39
2018-11-01T09:59:57.157Z,63.25
2018-11-01T10:02:28.808Z,62.46
2018-11-01T10:04:59.728Z,61.82
2018-11-01T10:07:31.039Z,60.94
2018-11-01T10:10:01.958Z,60.53
2018-11-01T10:12:33.165Z,61.89
2018-11-01T10:15:04.102Z,61.86
2018-11-01T10:17:35.800Z,60.49
2018-11-01T10:20:08.400Z,61.65
2018-11-01T10:22:39.736Z,61.41
2018-11-01T10:25:12.774Z,61.78
2018-11-01T10:27:43.750Z,61.53
2018-11-01T10:30:17.020Z,61.91
2018-11-01T10:32:48.726Z,61.84
2018-11-01T10:35:20.255Z,62.53
2018-11-01T10:37:51.109Z,62.56
2018-11-01T10:40:22.661Z,63.59
2018-11-01T10:42:54.126Z,62.83
2018-11-01T10:45:25.334Z,62.20
2018-11-01T10:47:56.341Z,62.66
2018-11-01T10:50:27.313Z,61.12
2018-11-01T10:52:58.619Z,62.10
2018-11-01T10:55:29.637Z,61.47
2018-11-01T10:58:01.163Z,60.80
2018-11-01T11:00:49.520Z,61.50
2018-11-01T11:03:20.732Z,60.48
2018-11-01T11:05:51.863Z,60.67
2018-11-01T11:08:23.165Z,60.50
2018-11-01T11:10:54.523Z,61.14
2018-11-01T11:13:25.747Z,61.23
2018-11-01T11:15:57.174Z,60.86
2018-11-01T11:18:28.598Z,60.44
2018-11-01T11:21:00.126Z,59.69
2018-11-01T11:23:30.736Z,58.87
2018-11-01T11:26:02.021Z,59.06
2018-11-01T11:28:33.523Z,57.83
2018-11-01T11:31:04.997Z,57.34
2018-11-01T11:33:36.389Z,57.00
2018-11-01T11:36:07.838Z,57.35
2018-11-01T11:38:38.745Z,58.24
2018-11-01T11:41:09.805Z,58.07
2018-11-01T11:43:40.766Z,57.73
2018-11-01T11:46:12.144Z,58.62
2018-11-01T11:48:43.210Z,57.94
2018-11-01T11:51:14.310Z,56.47
2018-11-01T11:53:45.621Z,55.96
2018-11-01T11:56:17.462Z,56.68
2018-11-01T11:58:48.440Z,57.20
2018-11-01T12:01:19.411Z,58.16
2018-11-01T12:03:50.373Z,57.01
2018-11-01T12:06:21.790Z,57.74
2018-11-01T12:08:52.612Z,57.90
2018-11-01T12:11:23.668Z,55.44
2018-11-01T12:13:54.709Z,57.32
2018-11-01T12:16:26.057Z,58.22
2018-11-01T12:18:57.854Z,57.10
2018-11-01T12:21:28.973Z,56.33
2018-11-01T12:24:00.549Z,56.80
2018-11-01T12:26:31.906Z,56.78
2018-11-01T12:29:03.183Z,56.83
2018-11-01T12:31:35.477Z,57.33
2018-11-01T12:34:07.045Z,59.33
2018-11-01T12:36:38.237Z,59.75
2018-11-01T12:39:10.170Z,60.88
2018-11-01T12:41:41.258Z,59.18
2018-11-01T12:44:12.265Z,58.92
2018-11-01T12:46:43.305Z,59.37
2018-11-01T12:49:14.907Z,60.34
2018-11-01T12:51:46.202Z,60.38
2018-11-01T12:54:17.506Z,60.93
2018-11-01T12:56:48.485Z,59.53
2018-11-01T12:59:19.418Z,61.51
2018-11-01T13:01:50.426Z,60.62
2018-11-01T13:04:21.473Z,60.63
2018-11-01T13:06:52.453Z,61.36
2018-11-01T13:09:23.421Z,61.23
2018-11-01T13:11:54.401Z,60.66
2018-11-01T13:14:26.022Z,61.46
2018-11-01T13:16:57.780Z,63.25
2018-11-01T13:19:29.646Z,63.04
2018-11-01T13:22:00.682Z,61.72
2018-11-01T13:24:31.950Z,61.01
2018-11-01T13:27:03.383Z,62.77
2018-11-01T13:29:34.391Z,62.31
2018-11-01T13:32:05.444Z,63.41
2018-11-01T13:34:36.769Z,62.65
2018-11-01T13:37:07.717Z,63.91
2018-11-01T13:39:39.278Z,63.96
2018-11-01T13:42:10.177Z,63.74
2018-11-01T13:44:41.396Z,63.60
2018-11-01T13:47:12.434Z,61.76
2018-11-01T13:49:43.644Z,60.82
2018-11-01T13:52:14.721Z,58.86
2018-11-01T13:54:45.827Z,55.14
2018-11-01T13:57:16.967Z,51.21
2018-11-01T13:59:48.026Z,46.77
2018-11-01T14:02:19.100Z,44.69
2018-11-01T14:04:50.178Z,43.15
2018-11-01T14:07:21.220Z,41.10
2018-11-01T14:09:52.386Z,41.13
2018-11-01T14:12:23.530Z,43.01
2018-11-01T14:14:54.871Z,41.03
2018-11-01T14:17:25.580Z,41.45
2018-11-01T14:19:56.585Z,41.81
2018-11-01T14:22:27.705Z,42.23
2018-11-01T14:24:58.833Z,42.24
2018-11-01T14:27:29.901Z,44.20
2018-11-01T14:30:00.868Z,44.20
2018-11-01T14:32:32.219Z,44.68
2018-11-01T14:35:04.028Z,46.46
2018-11-01T14:37:35.278Z,47.41
2018-11-01T14:40:08.141Z,48.56
2018-11-01T14:42:39.397Z,50.79
2018-11-01T14:45:10.887Z,52.62
2018-11-01T14:47:42.001Z,53.15
2018-11-01T14:50:13.296Z,53.73
2018-11-01T14:52:44.570Z,55.56
2018-11-01T14:55:16.483Z,56.13
2018-11-01T14:57:47.700Z,57.21
2018-11-01T15:00:17.312Z,57.25
2018-11-01T15:02:48.384Z,57.19
2018-11-01T15:05:19.689Z,57.27
2018-11-01T15:07:50.987Z,57.27
2018-11-01T15:10:21.909Z,57.70
2018-11-01T15:12:53.396Z,57.73
2018-11-01T15:15:24.341Z,58.31
2018-11-01T15:17:55.736Z,58.95
2018-11-01T15:20:26.736Z,59.93
2018-11-01T15:22:58.013Z,61.37
2018-11-01T15:25:29.326Z,63.86
2018-11-01T15:28:00.646Z,64.83
2018-11-01T15:30:31.695Z,64.51
2018-11-01T15:33:02.738Z,64.00
2018-11-01T15:35:33.689Z,63.78
2018-11-01T15:38:05.096Z,65.26
2018-11-01T15:40:36.193Z,65.43
2018-11-01T15:43:07.201Z,66.83
2018-11-01T15:45:38.673Z,67.66
2018-11-01T15:48:09.710Z,69.04
2018-11-01T15:50:40.650Z,69.93
2018-11-01T15:53:11.700Z,71.55
2018-11-01T15:55:42.785Z,72.93
2018-11-01T15:58:14.085Z,73.59
2018-11-01T16:00:45.095Z,74.28
2018-11-01T16:03:16.537Z,75.13
2018-11-01T16:05:47.760Z,75.89
2018-11-01T16:08:18.905Z,76.45
2018-11-01T16:10:50.935Z,77.94
2018-11-01T16:13:22.514Z,79.14
2018-11-01T16:15:53.920Z,79.10
2018-11-01T16:18:25.452Z,78.88
2018-11-01T16:20:56.918Z,79.24
2018-11-01T16:23:28.074Z,79.07
2018-11-01T16:25:59.080Z,79.14
2018-11-01T16:28:30.249Z,79.31
2018-11-01T16:31:01.253Z,79.42
2018-11-01T16:33:33.117Z,79.46
2018-11-01T16:36:04.470Z,79.20
2018-11-01T16:38:35.667Z,81.37
2018-11-01T16:41:06.983Z,80.52
2018-11-01T16:43:38.161Z,83.10
2018-11-01T16:46:09.317Z,83.13
2018-11-01T16:48:40.619Z,80.78
2018-11-01T16:51:11.818Z,79.23
2018-11-01T16:53:42.730Z,79.61
2018-11-01T16:56:13.845Z,80.39
2018-11-01T16:58:44.870Z,81.04
2018-11-01T17:01:16.440Z,81.35
2018-11-01T17:03:47.570Z,81.90
2018-11-01T17:06:18.699Z,82.67
2018-11-01T17:08:49.773Z,82.46
2018-11-01T17:11:20.899Z,82.19
2018-11-01T17:13:51.882Z,81.63
2018-11-01T17:16:23.275Z,81.87
2018-11-01T17:18:54.808Z,82.39
2018-11-01T17:21:25.984Z,82.43
2018-11-01T17:23:57.296Z,82.79
2018-11-01T17:26:28.863Z,82.22
2018-11-01T17:28:59.889Z,81.88
2018-11-01T17:31:30.845Z,81.54
2018-11-01T17:34:01.984Z,83.02
2018-11-01T17:36:32.863Z,83.29
2018-11-01T17:39:04.614Z,80.92
2018-11-01T17:41:35.518Z,81.85
2018-11-01T17:44:06.524Z,83.07
2018-11-01T17:46:37.456Z,82.54
2018-11-01T17:49:09.410Z,82.13
2018-11-01T17:51:40.567Z,83.46
2018-11-01T17:54:17.928Z,83.14
2018-11-01T17:56:48.857Z,83.52
2018-11-01T17:59:19.793Z,85.66
2018-11-01T18:01:51.230Z,85.47
2018-11-01T18:04:22.105Z,83.31
2018-11-01T18:06:53.090Z,83.02
2018-11-01T18:09:24.008Z,83.25
2018-11-01T18:11:54.943Z,83.08
2018-11-01T18:14:25.919Z,83.04
2018-11-01T18:16:56.797Z,83.62
2018-11-01T18:19:27.787Z,82.94
2018-11-01T18:21:58.788Z,83.89
2018-11-01T18:24:29.691Z,83.77
2018-11-01T18:27:00.638Z,83.83
2018-11-01T18:29:31.573Z,83.94
2018-11-01T18:32:03.104Z,84.65
2018-11-01T18:34:34.092Z,85.26
2018-11-01T18:37:05.558Z,83.58
2018-11-01T18:39:36.628Z,84.27
2018-11-01T18:42:07.930Z,83.45
2018-11-01T18:44:39.348Z,81.57
2018-11-01T18:47:10.352Z,80.24
2018-11-01T18:49:41.305Z,79.52
2018-11-01T18:52:12.300Z,79.15
2018-11-01T18:54:43.449Z,80.22
2018-11-01T18:57:14.460Z,79.62
2018-11-01T18:59:45.389Z,79.79
2018-11-01T19:02:16.468Z,79.77
2018-11-01T19:04:47.439Z,77.77
2018-11-01T19:07:18.387Z,78.89
2018-11-01T19:09:49.329Z,81.17
2018-11-01T19:12:20.297Z,79.91
2018-11-01T19:14:51.208Z,78.96
2018-11-01T19:17:22.170Z,80.10
2018-11-01T19:19:53.377Z,80.48
2018-11-01T19:22:24.278Z,81.66
2018-11-01T19:24:55.201Z,83.08
2018-11-01T19:27:26.495Z,82.40
2018-11-01T19:29:57.392Z,80.77
2018-11-01T19:32:28.579Z,80.40
2018-11-01T19:34:59.532Z,78.22
2018-11-01T19:37:30.957Z,78.22
2018-11-01T19:40:02.088Z,80.26
2018-11-01T19:42:32.889Z,82.00
2018-11-01T19:45:03.846Z,81.55
2018-11-01T19:47:35.067Z,81.52
2018-11-01T19:50:06.859Z,81.86
2018-11-01T19:52:37.910Z,81.50
2018-11-01T19:55:08.816Z,81.22
2018-11-01T19:57:40.282Z,81.36
2018-11-01T20:00:16.043Z,80.84
2018-11-01T20:02:46.300Z,81.24
2018-11-01T20:05:17.186Z,80.63
2018-11-01T20:07:48.410Z,81.03
2018-11-01T20:10:19.499Z,81.67
2018-11-01T20:12:50.702Z,81.35
2018-11-01T20:15:21.675Z,81.71
2018-11-01T20:17:52.627Z,82.40
2018-11-01T20:20:24.306Z,83.25
2018-11-01T20:22:56.013Z,83.66
2018-11-01T20:25:27.062Z,82.49
2018-11-01T20:27:57.972Z,83.34
2018-11-01T20:30:29.230Z,83.52
2018-11-01T20:33:00.134Z,83.74
2018-11-01T20:35:31.126Z,83.32
2018-11-01T20:38:02.462Z,84.03
2018-11-01T20:40:33.525Z,84.42
2018-11-01T20:43:04.480Z,84.90
2018-11-01T20:45:35.384Z,85.10
2018-11-01T20:48:06.818Z,84.89
2018-11-01T20:50:37.758Z,84.10
2018-11-01T20:53:11.631Z,84.31
2018-11-01T20:55:42.701Z,84.06
2018-11-01T20:58:13.792Z,83.83
2018-11-01T21:00:45.052Z,84.30
2018-11-01T21:03:15.950Z,84.03
2018-11-01T21:05:47.185Z,84.09
2018-11-01T21:08:18.555Z,84.06
2018-11-01T21:10:49.942Z,83.87
2018-11-01T21:13:20.846Z,84.12
2018-11-01T21:15:51.801Z,84.51
2018-11-01T21:18:22.903Z,84.06
2018-11-01T21:20:54.560Z,84.64
2018-11-01T21:23:25.500Z,84.72
2018-11-01T21:25:56.821Z,84.55
2018-11-01T21:28:28.008Z,84.58
2018-11-01T21:30:59.471Z,85.07
2018-11-01T21:33:30.646Z,84.85
2018-11-01T21:36:01.718Z,85.08
2018-11-01T21:38:32.815Z,85.04
2018-11-01T21:41:03.786Z,85.00
2018-11-01T21:43:34.698Z,84.94
2018-11-01T21:46:05.748Z,85.53
2018-11-01T21:48:37.439Z,85.14
2018-11-01T21:51:08.806Z,84.70
2018-11-01T21:53:39.783Z,84.67
2018-11-01T21:56:11.045Z,84.82
2018-11-01T21:58:42.310Z,84.97
2018-11-01T22:01:13.208Z,85.85
2018-11-01T22:03:44.637Z,85.12
2018-11-01T22:06:16.229Z,85.36
2018-11-01T22:08:47.141Z,85.14
2018-11-01T22:11:18.892Z,86.05
2018-11-01T22:13:50.218Z,86.29
2018-11-01T22:16:21.189Z,85.39
2018-11-01T22:18:52.118Z,85.08
2018-11-01T22:21:23.413Z,85.34
2018-11-01T22:23:54.779Z,85.02
2018-11-01T22:26:25.788Z,85.41
2018-11-01T22:28:57.015Z,85.71
2018-11-01T22:31:28.230Z,85.11
2018-11-01T22:33:59.224Z,85.30
2018-11-01T22:36:30.470Z,85.15
2018-11-01T22:39:01.701Z,86.16
2018-11-01T22:41:32.963Z,86.16
2018-11-01T22:44:03.871Z,86.05
2018-11-01T22:46:34.811Z,85.25
2018-11-01T22:49:05.727Z,84.81
2018-11-01T22:51:36.918Z,84.89
2018-11-01T22:54:08.060Z,84.79
2018-11-01T22:56:40.455Z,86.37
2018-11-01T22:59:11.694Z,87.63
2018-11-01T23:01:42.630Z,86.45
2018-11-01T23:04:16.061Z,85.82
2018-11-01T23:06:49.559Z,86.27
2018-11-01T23:09:20.836Z,86.17
2018-11-01T23:11:52.255Z,85.27
2018-11-01T23:14:23.792Z,84.49
2018-11-01T23:16:54.793Z,84.41
2018-11-01T23:19:25.729Z,85.10
2018-11-01T23:21:57.522Z,87.89
2018-11-01T23:24:29.496Z,88.63
2018-11-01T23:27:00.927Z,88.06
2018-11-01T23:29:32.112Z,88.28
2018-11-01T23:32:03.784Z,87.73
2018-11-01T23:34:35.367Z,87.67
2018-11-01T23:37:24.276Z,87.66
2018-11-01T23:40:12.596Z,86.56
2018-11-01T23:43:02.307Z,85.59
2018-11-01T23:45:50.314Z,86.35
2018-11-01T23:48:19.975Z,85.23
2018-11-01T23:51:01.688Z,85.03
2018-11-01T23:53:35.301Z,85.00
2018-11-01T23:56:06.315Z,84.97
2018-11-01T23:58:37.296Z,84.75
